sensor_id;sensor_type;location;lat;lon;timestamp;pressure;altitude;pressure_sealevel;temperature;humidity
58785;BME280;44557;51.862;19.378;2023-05-19T00:00:42;100280.42;;;11.74;89.61
58785;BME280;44557;51.862;19.378;2023-05-19T00:02:53;100280.25;;;11.64;89.37
58785;BME280;44557;51.862;19.378;2023-05-19T00:04:56;100278.20;;;11.71;89.54
58785;BME280;44557;51.862;19.378;2023-05-19T00:06:58;100276.25;;;11.71;89.68
58785;BME280;44557;51.862;19.378;2023-05-19T00:09:04;100275.61;;;11.74;89.64
58785;BME280;44557;51.862;19.378;2023-05-19T00:11:06;100275.95;;;11.67;90.03
58785;BME280;44557;51.862;19.378;2023-05-19T00:13:08;100276.63;;;11.73;90.27
58785;BME280;44557;51.862;19.378;2023-05-19T00:15:11;100276.45;;;11.69;89.95
58785;BME280;44557;51.862;19.378;2023-05-19T00:17:13;100273.69;;;11.72;90.05
58785;BME280;44557;51.862;19.378;2023-05-19T00:19:17;100274.27;;;11.59;90.86
58785;BME280;44557;51.862;19.378;2023-05-19T00:21:19;100273.92;;;11.69;90.35
58785;BME280;44557;51.862;19.378;2023-05-19T00:23:21;100273.92;;;11.65;90.25
58785;BME280;44557;51.862;19.378;2023-05-19T00:25:22;100272.52;;;11.64;90.43
58785;BME280;44557;51.862;19.378;2023-05-19T00:27:24;100272.19;;;11.73;90.15
58785;BME280;44557;51.862;19.378;2023-05-19T00:29:26;100268.69;;;11.72;90.31
58785;BME280;44557;51.862;19.378;2023-05-19T00:31:27;100269.50;;;11.56;91.15
58785;BME280;44557;51.862;19.378;2023-05-19T00:33:29;100269.95;;;11.47;92.24
58785;BME280;44557;51.862;19.378;2023-05-19T00:35:31;100271.61;;;11.56;92.21
58785;BME280;44557;51.862;19.378;2023-05-19T00:37:32;100272.90;;;11.60;92.12
58785;BME280;44557;51.862;19.378;2023-05-19T00:39:34;100271.10;;;11.62;91.77
58785;BME280;44557;51.862;19.378;2023-05-19T00:41:35;100269.89;;;11.67;91.75
58785;BME280;44557;51.862;19.378;2023-05-19T00:43:37;100270.62;;;11.60;91.91
58785;BME280;44557;51.862;19.378;2023-05-19T00:45:39;100267.54;;;11.51;92.08
58785;BME280;44557;51.862;19.378;2023-05-19T00:47:41;100269.22;;;11.53;91.60
58785;BME280;44557;51.862;19.378;2023-05-19T00:49:42;100267.64;;;11.60;91.34
58785;BME280;44557;51.862;19.378;2023-05-19T00:51:44;100268.23;;;11.51;91.61
58785;BME280;44557;51.862;19.378;2023-05-19T00:53:47;100263.47;;;11.48;91.64
58785;BME280;44557;51.862;19.378;2023-05-19T00:55:51;100262.83;;;11.40;91.98
58785;BME280;44557;51.862;19.378;2023-05-19T00:57:54;100263.82;;;11.49;91.91
58785;BME280;44557;51.862;19.378;2023-05-19T00:59:57;100263.56;;;11.48;91.85
58785;BME280;44557;51.862;19.378;2023-05-19T01:01:58;100264.35;;;11.43;91.94
58785;BME280;44557;51.862;19.378;2023-05-19T01:04:00;100270.56;;;11.41;92.28
58785;BME280;44557;51.862;19.378;2023-05-19T01:06:03;100269.65;;;11.50;91.86
58785;BME280;44557;51.862;19.378;2023-05-19T01:08:08;100271.65;;;11.46;91.76
58785;BME280;44557;51.862;19.378;2023-05-19T01:10:09;100272.64;;;11.38;92.25
58785;BME280;44557;51.862;19.378;2023-05-19T01:12:11;100270.30;;;11.40;92.18
58785;BME280;44557;51.862;19.378;2023-05-19T01:14:13;100272.20;;;11.35;92.12
58785;BME280;44557;51.862;19.378;2023-05-19T01:16:29;100270.00;;;11.35;92.05
58785;BME280;44557;51.862;19.378;2023-05-19T01:18:46;100275.27;;;11.18;92.85
58785;BME280;44557;51.862;19.378;2023-05-19T01:20:57;100270.45;;;11.07;93.54
58785;BME280;44557;51.862;19.378;2023-05-19T01:30:43;100273.51;;;11.36;92.32
58785;BME280;44557;51.862;19.378;2023-05-19T01:32:47;100273.69;;;11.38;92.14
58785;BME280;44557;51.862;19.378;2023-05-19T01:34:49;100277.79;;;11.34;92.39
58785;BME280;44557;51.862;19.378;2023-05-19T01:36:53;100274.29;;;11.32;92.83
58785;BME280;44557;51.862;19.378;2023-05-19T01:38:57;100279.73;;;11.32;92.52
58785;BME280;44557;51.862;19.378;2023-05-19T01:41:02;100277.67;;;11.26;92.72
58785;BME280;44557;51.862;19.378;2023-05-19T01:43:09;100277.33;;;11.27;93.12
58785;BME280;44557;51.862;19.378;2023-05-19T01:45:12;100280.83;;;11.25;93.54
58785;BME280;44557;51.862;19.378;2023-05-19T01:47:14;100278.40;;;11.30;93.20
58785;BME280;44557;51.862;19.378;2023-05-19T01:49:16;100279.59;;;11.27;93.51
58785;BME280;44557;51.862;19.378;2023-05-19T01:51:18;100282.05;;;11.20;94.08
58785;BME280;44557;51.862;19.378;2023-05-19T01:53:19;100281.55;;;11.36;93.67
58785;BME280;44557;51.862;19.378;2023-05-19T01:55:21;100283.52;;;11.41;92.87
58785;BME280;44557;51.862;19.378;2023-05-19T02:02:30;100280.77;;;11.31;92.43
58785;BME280;44557;51.862;19.378;2023-05-19T02:04:42;100275.23;;;11.35;92.82
58785;BME280;44557;51.862;19.378;2023-05-19T02:07:00;100276.55;;;11.32;93.31
58785;BME280;44557;51.862;19.378;2023-05-19T02:09:22;100270.50;;;11.30;93.66
58785;BME280;44557;51.862;19.378;2023-05-19T02:13:55;100271.08;;;11.34;93.80
58785;BME280;44557;51.862;19.378;2023-05-19T02:16:05;100264.27;;;11.30;94.09
58785;BME280;44557;51.862;19.378;2023-05-19T02:18:09;100265.17;;;11.31;94.29
58785;BME280;44557;51.862;19.378;2023-05-19T02:20:18;100265.02;;;11.29;93.93
58785;BME280;44557;51.862;19.378;2023-05-19T02:22:19;100261.65;;;11.26;93.48
58785;BME280;44557;51.862;19.378;2023-05-19T02:24:21;100262.66;;;11.24;92.96
58785;BME280;44557;51.862;19.378;2023-05-19T02:26:26;100263.96;;;11.19;93.46
58785;BME280;44557;51.862;19.378;2023-05-19T02:28:27;100265.27;;;11.28;93.71
58785;BME280;44557;51.862;19.378;2023-05-19T02:30:29;100264.11;;;11.26;94.19
58785;BME280;44557;51.862;19.378;2023-05-19T02:32:32;100265.90;;;11.26;94.45
58785;BME280;44557;51.862;19.378;2023-05-19T02:34:34;100261.85;;;11.27;94.72
58785;BME280;44557;51.862;19.378;2023-05-19T02:36:38;100262.13;;;11.20;94.89
58785;BME280;44557;51.862;19.378;2023-05-19T02:38:42;100263.05;;;11.29;94.47
58785;BME280;44557;51.862;19.378;2023-05-19T02:40:43;100257.91;;;11.29;94.36
58785;BME280;44557;51.862;19.378;2023-05-19T02:42:45;100258.63;;;11.29;94.43
58785;BME280;44557;51.862;19.378;2023-05-19T02:44:47;100256.35;;;11.19;95.08
58785;BME280;44557;51.862;19.378;2023-05-19T02:46:48;100252.23;;;11.15;95.36
58785;BME280;44557;51.862;19.378;2023-05-19T02:48:52;100260.88;;;11.21;95.25
58785;BME280;44557;51.862;19.378;2023-05-19T02:50:53;100257.55;;;11.18;95.23
58785;BME280;44557;51.862;19.378;2023-05-19T02:52:55;100256.17;;;11.23;95.01
58785;BME280;44557;51.862;19.378;2023-05-19T02:54:56;100255.30;;;11.21;95.07
58785;BME280;44557;51.862;19.378;2023-05-19T02:56:58;100255.55;;;11.17;95.25
58785;BME280;44557;51.862;19.378;2023-05-19T02:59:00;100254.02;;;11.18;95.33
58785;BME280;44557;51.862;19.378;2023-05-19T03:01:01;100253.46;;;11.19;95.36
58785;BME280;44557;51.862;19.378;2023-05-19T03:03:03;100253.80;;;11.13;95.59
58785;BME280;44557;51.862;19.378;2023-05-19T03:05:05;100253.80;;;11.15;95.58
58785;BME280;44557;51.862;19.378;2023-05-19T03:07:08;100254.27;;;11.17;95.61
58785;BME280;44557;51.862;19.378;2023-05-19T03:09:12;100254.52;;;11.15;95.81
58785;BME280;44557;51.862;19.378;2023-05-19T03:11:14;100252.73;;;11.22;95.30
58785;BME280;44557;51.862;19.378;2023-05-19T03:13:16;100255.35;;;11.16;95.85
58785;BME280;44557;51.862;19.378;2023-05-19T03:15:17;100257.45;;;11.07;96.20
58785;BME280;44557;51.862;19.378;2023-05-19T03:17:19;100257.45;;;11.08;96.38
58785;BME280;44557;51.862;19.378;2023-05-19T03:19:21;100258.34;;;11.11;96.36
58785;BME280;44557;51.862;19.378;2023-05-19T03:21:22;100255.46;;;11.08;96.54
58785;BME280;44557;51.862;19.378;2023-05-19T03:23:24;100253.80;;;11.12;96.44
58785;BME280;44557;51.862;19.378;2023-05-19T03:25:26;100249.55;;;11.19;96.11
58785;BME280;44557;51.862;19.378;2023-05-19T03:27:28;100247.36;;;11.20;96.20
58785;BME280;44557;51.862;19.378;2023-05-19T03:29:30;100249.29;;;11.11;96.62
58785;BME280;44557;51.862;19.378;2023-05-19T03:31:31;100248.14;;;11.10;96.57
58785;BME280;44557;51.862;19.378;2023-05-19T03:33:33;100253.10;;;11.08;96.77
58785;BME280;44557;51.862;19.378;2023-05-19T03:35:35;100254.49;;;11.06;96.66
58785;BME280;44557;51.862;19.378;2023-05-19T03:37:36;100254.80;;;11.02;96.78
58785;BME280;44557;51.862;19.378;2023-05-19T03:39:38;100252.38;;;11.08;96.41
58785;BME280;44557;51.862;19.378;2023-05-19T03:41:39;100258.48;;;11.05;96.26
58785;BME280;44557;51.862;19.378;2023-05-19T03:43:41;100254.10;;;11.04;96.13
58785;BME280;44557;51.862;19.378;2023-05-19T03:45:43;100257.80;;;11.08;95.81
58785;BME280;44557;51.862;19.378;2023-05-19T03:47:45;100256.41;;;11.06;96.03
58785;BME280;44557;51.862;19.378;2023-05-19T03:49:48;100253.94;;;11.11;95.72
58785;BME280;44557;51.862;19.378;2023-05-19T03:51:49;100258.70;;;11.10;95.48
58785;BME280;44557;51.862;19.378;2023-05-19T03:53:51;100256.25;;;11.21;94.73
58785;BME280;44557;51.862;19.378;2023-05-19T03:55:53;100258.00;;;11.16;94.55
58785;BME280;44557;51.862;19.378;2023-05-19T03:57:55;100258.44;;;11.13;94.51
58785;BME280;44557;51.862;19.378;2023-05-19T03:59:57;100261.02;;;11.11;94.88
58785;BME280;44557;51.862;19.378;2023-05-19T04:01:59;100261.20;;;11.11;95.22
58785;BME280;44557;51.862;19.378;2023-05-19T04:04:01;100261.97;;;11.15;95.27
58785;BME280;44557;51.862;19.378;2023-05-19T04:06:03;100262.28;;;11.22;95.14
58785;BME280;44557;51.862;19.378;2023-05-19T04:08:04;100263.98;;;11.34;94.23
58785;BME280;44557;51.862;19.378;2023-05-19T04:10:07;100258.27;;;11.31;93.61
58785;BME280;44557;51.862;19.378;2023-05-19T04:12:08;100261.64;;;11.24;93.76
58785;BME280;44557;51.862;19.378;2023-05-19T04:14:10;100263.34;;;11.23;94.13
58785;BME280;44557;51.862;19.378;2023-05-19T04:16:12;100261.41;;;11.20;94.43
58785;BME280;44557;51.862;19.378;2023-05-19T04:18:14;100261.96;;;11.31;94.12
58785;BME280;44557;51.862;19.378;2023-05-19T04:20:15;100262.23;;;11.28;94.17
58785;BME280;44557;51.862;19.378;2023-05-19T04:22:17;100264.46;;;11.36;93.68
58785;BME280;44557;51.862;19.378;2023-05-19T04:24:19;100263.19;;;11.32;94.05
58785;BME280;44557;51.862;19.378;2023-05-19T04:26:20;100266.21;;;11.31;94.08
58785;BME280;44557;51.862;19.378;2023-05-19T04:28:25;100268.02;;;11.38;93.67
58785;BME280;44557;51.862;19.378;2023-05-19T04:30:27;100263.38;;;11.33;93.64
58785;BME280;44557;51.862;19.378;2023-05-19T04:32:29;100265.46;;;11.32;93.82
58785;BME280;44557;51.862;19.378;2023-05-19T04:34:31;100263.17;;;11.25;94.53
58785;BME280;44557;51.862;19.378;2023-05-19T04:36:34;100262.61;;;11.32;94.19
58785;BME280;44557;51.862;19.378;2023-05-19T04:38:36;100263.10;;;11.50;93.45
58785;BME280;44557;51.862;19.378;2023-05-19T04:40:40;100264.98;;;11.42;93.80
58785;BME280;44557;51.862;19.378;2023-05-19T04:42:42;100266.89;;;11.41;93.95
58785;BME280;44557;51.862;19.378;2023-05-19T04:44:46;100265.50;;;11.44;94.00
58785;BME280;44557;51.862;19.378;2023-05-19T04:46:49;100269.83;;;11.40;94.12
58785;BME280;44557;51.862;19.378;2023-05-19T04:48:54;100267.77;;;11.43;94.31
58785;BME280;44557;51.862;19.378;2023-05-19T04:50:58;100264.32;;;11.47;94.01
58785;BME280;44557;51.862;19.378;2023-05-19T04:53:01;100265.73;;;11.40;94.31
58785;BME280;44557;51.862;19.378;2023-05-19T04:55:03;100266.50;;;11.41;94.35
58785;BME280;44557;51.862;19.378;2023-05-19T04:57:05;100270.39;;;11.55;93.99
58785;BME280;44557;51.862;19.378;2023-05-19T04:59:07;100271.11;;;11.53;93.90
58785;BME280;44557;51.862;19.378;2023-05-19T05:01:10;100269.98;;;11.60;93.40
58785;BME280;44557;51.862;19.378;2023-05-19T05:03:14;100272.08;;;11.55;93.80
58785;BME280;44557;51.862;19.378;2023-05-19T05:05:16;100270.00;;;11.51;93.25
58785;BME280;44557;51.862;19.378;2023-05-19T05:07:18;100271.00;;;11.69;92.93
58785;BME280;44557;51.862;19.378;2023-05-19T05:09:20;100265.38;;;11.50;93.83
58785;BME280;44557;51.862;19.378;2023-05-19T05:11:22;100264.52;;;11.69;93.59
58785;BME280;44557;51.862;19.378;2023-05-19T05:13:24;100260.40;;;11.57;93.72
58785;BME280;44557;51.862;19.378;2023-05-19T05:15:26;100259.56;;;11.47;94.14
58785;BME280;44557;51.862;19.378;2023-05-19T05:17:29;100258.52;;;11.72;93.67
58785;BME280;44557;51.862;19.378;2023-05-19T05:19:31;100261.59;;;11.65;93.93
58785;BME280;44557;51.862;19.378;2023-05-19T05:21:33;100259.33;;;11.73;93.46
58785;BME280;44557;51.862;19.378;2023-05-19T05:23:35;100260.77;;;11.84;92.99
58785;BME280;44557;51.862;19.378;2023-05-19T05:25:37;100257.76;;;11.88;92.70
58785;BME280;44557;51.862;19.378;2023-05-19T05:27:38;100257.55;;;11.96;92.45
58785;BME280;44557;51.862;19.378;2023-05-19T05:29:41;100259.04;;;12.08;92.08
58785;BME280;44557;51.862;19.378;2023-05-19T05:31:42;100261.45;;;11.88;93.03
58785;BME280;44557;51.862;19.378;2023-05-19T05:33:44;100260.03;;;11.86;93.40
58785;BME280;44557;51.862;19.378;2023-05-19T05:35:46;100255.45;;;11.93;93.42
58785;BME280;44557;51.862;19.378;2023-05-19T05:37:47;100254.88;;;12.03;92.83
58785;BME280;44557;51.862;19.378;2023-05-19T05:39:49;100257.48;;;11.87;93.66
58785;BME280;44557;51.862;19.378;2023-05-19T05:41:51;100254.21;;;11.94;91.24
58785;BME280;44557;51.862;19.378;2023-05-19T05:43:52;100253.91;;;12.00;90.49
58785;BME280;44557;51.862;19.378;2023-05-19T05:45:55;100255.31;;;11.96;90.39
58785;BME280;44557;51.862;19.378;2023-05-19T05:47:57;100256.30;;;12.09;89.03
58785;BME280;44557;51.862;19.378;2023-05-19T05:49:59;100254.70;;;12.04;89.60
58785;BME280;44557;51.862;19.378;2023-05-19T05:52:02;100254.54;;;12.04;90.37
58785;BME280;44557;51.862;19.378;2023-05-19T05:54:05;100259.08;;;12.05;89.46
58785;BME280;44557;51.862;19.378;2023-05-19T05:56:08;100258.06;;;11.97;89.44
58785;BME280;44557;51.862;19.378;2023-05-19T05:58:10;100264.70;;;11.88;90.84
58785;BME280;44557;51.862;19.378;2023-05-19T06:00:12;100262.59;;;11.77;91.86
58785;BME280;44557;51.862;19.378;2023-05-19T06:02:16;100264.52;;;11.86;91.76
58785;BME280;44557;51.862;19.378;2023-05-19T06:04:18;100260.44;;;11.84;91.29
58785;BME280;44557;51.862;19.378;2023-05-19T06:06:21;100254.14;;;11.77;91.36
58785;BME280;44557;51.862;19.378;2023-05-19T06:08:22;100257.80;;;11.85;90.69
58785;BME280;44557;51.862;19.378;2023-05-19T06:10:24;100255.98;;;12.03;90.00
58785;BME280;44557;51.862;19.378;2023-05-19T06:12:26;100258.52;;;12.00;90.17
58785;BME280;44557;51.862;19.378;2023-05-19T06:14:28;100259.61;;;11.81;90.74
58785;BME280;44557;51.862;19.378;2023-05-19T06:16:29;100254.88;;;11.92;91.04
58785;BME280;44557;51.862;19.378;2023-05-19T06:18:31;100255.96;;;12.10;90.33
58785;BME280;44557;51.862;19.378;2023-05-19T06:20:33;100257.20;;;12.21;89.68
58785;BME280;44557;51.862;19.378;2023-05-19T06:22:35;100260.86;;;12.18;89.71
58785;BME280;44557;51.862;19.378;2023-05-19T06:24:36;100260.41;;;12.21;89.08
58785;BME280;44557;51.862;19.378;2023-05-19T06:26:38;100261.98;;;12.19;88.62
58785;BME280;44557;51.862;19.378;2023-05-19T06:28:39;100261.20;;;12.17;88.35
58785;BME280;44557;51.862;19.378;2023-05-19T06:30:41;100263.74;;;12.02;89.35
58785;BME280;44557;51.862;19.378;2023-05-19T06:32:43;100270.79;;;12.04;90.72
58785;BME280;44557;51.862;19.378;2023-05-19T06:34:46;100270.57;;;12.13;91.18
58785;BME280;44557;51.862;19.378;2023-05-19T06:36:54;100274.83;;;11.98;91.14
58785;BME280;44557;51.862;19.378;2023-05-19T06:38:55;100271.69;;;11.93;91.16
58785;BME280;44557;51.862;19.378;2023-05-19T06:40:58;100268.38;;;11.97;90.29
58785;BME280;44557;51.862;19.378;2023-05-19T06:43:00;100268.50;;;12.08;90.34
58785;BME280;44557;51.862;19.378;2023-05-19T06:45:01;100270.35;;;12.01;90.17
58785;BME280;44557;51.862;19.378;2023-05-19T06:47:03;100273.27;;;11.95;89.88
58785;BME280;44557;51.862;19.378;2023-05-19T06:49:05;100274.52;;;12.00;89.61
58785;BME280;44557;51.862;19.378;2023-05-19T06:51:07;100272.31;;;11.99;90.41
58785;BME280;44557;51.862;19.378;2023-05-19T06:53:10;100267.84;;;11.96;89.49
58785;BME280;44557;51.862;19.378;2023-05-19T06:55:12;100264.11;;;12.03;89.33
58785;BME280;44557;51.862;19.378;2023-05-19T06:57:13;100260.90;;;12.05;89.50
58785;BME280;44557;51.862;19.378;2023-05-19T06:59:15;100264.67;;;12.09;88.69
58785;BME280;44557;51.862;19.378;2023-05-19T07:01:17;100266.00;;;12.11;88.73
58785;BME280;44557;51.862;19.378;2023-05-19T07:03:18;100266.34;;;12.05;88.36
58785;BME280;44557;51.862;19.378;2023-05-19T07:05:20;100266.17;;;12.03;87.97
58785;BME280;44557;51.862;19.378;2023-05-19T07:07:22;100261.31;;;12.14;87.93
58785;BME280;44557;51.862;19.378;2023-05-19T07:09:23;100263.47;;;12.00;88.05
58785;BME280;44557;51.862;19.378;2023-05-19T07:11:25;100258.63;;;12.04;88.22
58785;BME280;44557;51.862;19.378;2023-05-19T07:13:27;100258.21;;;12.33;88.48
58785;BME280;44557;51.862;19.378;2023-05-19T07:15:28;100261.58;;;12.45;88.03
58785;BME280;44557;51.862;19.378;2023-05-19T07:17:30;100261.76;;;12.29;87.59
58785;BME280;44557;51.862;19.378;2023-05-19T07:19:32;100260.50;;;12.40;87.24
58785;BME280;44557;51.862;19.378;2023-05-19T07:21:34;100257.71;;;12.57;86.14
58785;BME280;44557;51.862;19.378;2023-05-19T07:23:36;100258.50;;;12.49;85.18
58785;BME280;44557;51.862;19.378;2023-05-19T07:25:37;100259.41;;;12.34;85.62
58785;BME280;44557;51.862;19.378;2023-05-19T07:27:39;100265.95;;;12.33;85.78
58785;BME280;44557;51.862;19.378;2023-05-19T07:29:41;100267.65;;;12.61;85.07
58785;BME280;44557;51.862;19.378;2023-05-19T07:31:42;100269.19;;;12.44;85.98
58785;BME280;44557;51.862;19.378;2023-05-19T07:33:44;100265.58;;;12.40;84.89
58785;BME280;44557;51.862;19.378;2023-05-19T07:35:46;100268.88;;;12.33;85.30
58785;BME280;44557;51.862;19.378;2023-05-19T07:37:48;100265.84;;;12.40;85.60
58785;BME280;44557;51.862;19.378;2023-05-19T07:39:51;100267.67;;;12.43;85.32
58785;BME280;44557;51.862;19.378;2023-05-19T07:41:52;100263.13;;;12.40;85.21
58785;BME280;44557;51.862;19.378;2023-05-19T07:43:56;100262.79;;;12.43;84.16
58785;BME280;44557;51.862;19.378;2023-05-19T07:45:57;100267.72;;;12.36;84.24
58785;BME280;44557;51.862;19.378;2023-05-19T07:47:59;100272.36;;;12.36;84.22
58785;BME280;44557;51.862;19.378;2023-05-19T07:50:01;100275.98;;;12.44;84.56
58785;BME280;44557;51.862;19.378;2023-05-19T07:52:03;100269.76;;;12.42;84.59
58785;BME280;44557;51.862;19.378;2023-05-19T07:54:05;100265.34;;;12.36;85.74
58785;BME280;44557;51.862;19.378;2023-05-19T07:56:08;100267.95;;;12.54;84.40
58785;BME280;44557;51.862;19.378;2023-05-19T07:58:10;100267.26;;;12.41;84.77
58785;BME280;44557;51.862;19.378;2023-05-19T08:00:12;100271.05;;;12.34;85.97
58785;BME280;44557;51.862;19.378;2023-05-19T08:02:14;100269.60;;;12.44;85.43
58785;BME280;44557;51.862;19.378;2023-05-19T08:04:15;100271.21;;;12.37;85.52
58785;BME280;44557;51.862;19.378;2023-05-19T08:06:17;100274.59;;;12.46;85.56
58785;BME280;44557;51.862;19.378;2023-05-19T08:08:19;100273.42;;;12.29;86.82
58785;BME280;44557;51.862;19.378;2023-05-19T08:10:21;100274.42;;;12.20;85.75
58785;BME280;44557;51.862;19.378;2023-05-19T08:12:22;100271.86;;;12.21;85.70
58785;BME280;44557;51.862;19.378;2023-05-19T08:14:24;100271.95;;;12.07;86.96
58785;BME280;44557;51.862;19.378;2023-05-19T08:16:26;100267.38;;;12.08;86.63
58785;BME280;44557;51.862;19.378;2023-05-19T08:18:28;100268.93;;;11.99;87.27
58785;BME280;44557;51.862;19.378;2023-05-19T08:20:30;100264.23;;;12.14;86.86
58785;BME280;44557;51.862;19.378;2023-05-19T08:22:32;100264.14;;;12.01;87.33
58785;BME280;44557;51.862;19.378;2023-05-19T08:24:33;100263.80;;;11.97;87.74
58785;BME280;44557;51.862;19.378;2023-05-19T08:26:35;100265.65;;;12.06;87.26
58785;BME280;44557;51.862;19.378;2023-05-19T08:28:36;100260.61;;;12.04;86.97
58785;BME280;44557;51.862;19.378;2023-05-19T08:30:38;100256.92;;;12.25;86.82
58785;BME280;44557;51.862;19.378;2023-05-19T08:32:40;100261.59;;;12.37;86.56
58785;BME280;44557;51.862;19.378;2023-05-19T08:34:41;100260.03;;;12.25;86.93
58785;BME280;44557;51.862;19.378;2023-05-19T08:36:43;100259.98;;;12.28;87.24
58785;BME280;44557;51.862;19.378;2023-05-19T08:38:45;100260.16;;;12.30;86.08
58785;BME280;44557;51.862;19.378;2023-05-19T08:40:47;100265.56;;;12.32;85.92
58785;BME280;44557;51.862;19.378;2023-05-19T08:42:49;100263.89;;;12.29;86.18
58785;BME280;44557;51.862;19.378;2023-05-19T08:44:50;100268.12;;;12.22;86.73
58785;BME280;44557;51.862;19.378;2023-05-19T08:46:54;100270.48;;;12.08;87.40
58785;BME280;44557;51.862;19.378;2023-05-19T08:49:04;100271.85;;;12.07;86.90
58785;BME280;44557;51.862;19.378;2023-05-19T08:53:36;100274.83;;;12.18;87.14
58785;BME280;44557;51.862;19.378;2023-05-19T08:56:05;100271.41;;;12.32;86.15
58785;BME280;44557;51.862;19.378;2023-05-19T08:58:04;100271.40;;;12.34;86.41
58785;BME280;44557;51.862;19.378;2023-05-19T09:00:07;100264.14;;;12.40;85.47
58785;BME280;44557;51.862;19.378;2023-05-19T09:02:13;100261.89;;;12.32;85.63
58785;BME280;44557;51.862;19.378;2023-05-19T09:04:15;100259.21;;;12.33;84.71
58785;BME280;44557;51.862;19.378;2023-05-19T09:06:17;100264.70;;;12.27;85.58
58785;BME280;44557;51.862;19.378;2023-05-19T09:08:19;100265.41;;;12.12;86.26
58785;BME280;44557;51.862;19.378;2023-05-19T09:10:21;100271.33;;;12.06;86.22
58785;BME280;44557;51.862;19.378;2023-05-19T09:12:23;100278.00;;;12.03;85.84
58785;BME280;44557;51.862;19.378;2023-05-19T09:14:24;100272.76;;;12.08;86.02
58785;BME280;44557;51.862;19.378;2023-05-19T09:16:27;100268.58;;;12.22;85.97
58785;BME280;44557;51.862;19.378;2023-05-19T09:18:29;100273.00;;;12.32;85.85
58785;BME280;44557;51.862;19.378;2023-05-19T09:20:31;100271.58;;;12.32;85.52
58785;BME280;44557;51.862;19.378;2023-05-19T09:22:33;100266.08;;;12.34;85.45
58785;BME280;44557;51.862;19.378;2023-05-19T09:24:37;100261.79;;;12.30;85.09
58785;BME280;44557;51.862;19.378;2023-05-19T09:26:41;100258.79;;;12.30;85.30
58785;BME280;44557;51.862;19.378;2023-05-19T09:28:45;100259.77;;;12.33;85.55
58785;BME280;44557;51.862;19.378;2023-05-19T09:30:48;100264.59;;;12.37;85.33
58785;BME280;44557;51.862;19.378;2023-05-19T09:32:50;100270.23;;;12.48;85.08
58785;BME280;44557;51.862;19.378;2023-05-19T09:34:52;100272.96;;;12.55;85.05
58785;BME280;44557;51.862;19.378;2023-05-19T09:36:55;100272.51;;;12.43;85.55
58785;BME280;44557;51.862;19.378;2023-05-19T09:38:58;100276.85;;;12.31;86.23
58785;BME280;44557;51.862;19.378;2023-05-19T09:41:00;100274.28;;;12.27;86.39
58785;BME280;44557;51.862;19.378;2023-05-19T09:43:04;100271.16;;;12.26;86.45
58785;BME280;44557;51.862;19.378;2023-05-19T09:45:08;100268.23;;;12.21;86.56
58785;BME280;44557;51.862;19.378;2023-05-19T09:47:10;100264.44;;;12.23;86.95
58785;BME280;44557;51.862;19.378;2023-05-19T09:49:12;100265.81;;;12.30;86.74
58785;BME280;44557;51.862;19.378;2023-05-19T09:51:14;100267.05;;;12.28;86.70
58785;BME280;44557;51.862;19.378;2023-05-19T09:53:16;100261.44;;;12.45;85.24
58785;BME280;44557;51.862;19.378;2023-05-19T09:55:19;100263.17;;;12.48;84.85
58785;BME280;44557;51.862;19.378;2023-05-19T09:57:26;100268.98;;;12.49;85.61
58785;BME280;44557;51.862;19.378;2023-05-19T09:59:29;100272.29;;;12.46;86.32
58785;BME280;44557;51.862;19.378;2023-05-19T10:01:32;100270.25;;;12.32;86.77
58785;BME280;44557;51.862;19.378;2023-05-19T10:03:34;100270.14;;;12.33;86.57
58785;BME280;44557;51.862;19.378;2023-05-19T10:05:37;100264.55;;;12.38;86.26
58785;BME280;44557;51.862;19.378;2023-05-19T10:07:40;100266.52;;;12.28;86.88
58785;BME280;44557;51.862;19.378;2023-05-19T10:09:42;100264.67;;;12.17;87.67
58785;BME280;44557;51.862;19.378;2023-05-19T10:11:45;100263.02;;;12.25;87.60
58785;BME280;44557;51.862;19.378;2023-05-19T10:13:49;100264.41;;;12.22;87.78
58785;BME280;44557;51.862;19.378;2023-05-19T10:15:52;100261.88;;;12.30;87.69
58785;BME280;44557;51.862;19.378;2023-05-19T10:17:55;100266.34;;;12.43;87.04
58785;BME280;44557;51.862;19.378;2023-05-19T10:19:57;100263.33;;;12.27;87.46
58785;BME280;44557;51.862;19.378;2023-05-19T10:21:59;100261.54;;;12.28;87.39
58785;BME280;44557;51.862;19.378;2023-05-19T10:24:01;100262.70;;;12.19;88.54
58785;BME280;44557;51.862;19.378;2023-05-19T10:26:04;100259.90;;;12.16;88.42
58785;BME280;44557;51.862;19.378;2023-05-19T10:28:15;100256.54;;;12.21;87.97
58785;BME280;44557;51.862;19.378;2023-05-19T10:30:20;100244.35;;;12.36;87.43
58785;BME280;44557;51.862;19.378;2023-05-19T10:32:27;100243.64;;;12.65;86.63
58785;BME280;44557;51.862;19.378;2023-05-19T10:37:16;100246.73;;;12.87;85.01
58785;BME280;44557;51.862;19.378;2023-05-19T10:39:28;100244.27;;;12.80;85.72
58785;BME280;44557;51.862;19.378;2023-05-19T10:41:57;100251.48;;;12.63;86.83
58785;BME280;44557;51.862;19.378;2023-05-19T10:46:25;100248.23;;;12.53;86.90
58785;BME280;44557;51.862;19.378;2023-05-19T10:48:32;100248.50;;;12.54;87.21
58785;BME280;44557;51.862;19.378;2023-05-19T10:50:35;100244.41;;;12.56;87.16
58785;BME280;44557;51.862;19.378;2023-05-19T10:52:39;100245.69;;;12.63;86.47
58785;BME280;44557;51.862;19.378;2023-05-19T10:54:42;100247.16;;;12.60;86.76
58785;BME280;44557;51.862;19.378;2023-05-19T10:56:47;100254.22;;;12.50;87.24